sensor_id;sensor_type;location;lat;lon;timestamp;P1;durP1;ratioP1;P2;durP2;ratioP2
11283;SDS011;5698;47.332;11.180;2024-03-23T00:52:55;1.27;;;1.00;;
11283;SDS011;5698;47.332;11.180;2024-03-23T00:55:22;1.23;;;1.07;;
11283;SDS011;5698;47.332;11.180;2024-03-23T00:57:49;1.10;;;1.00;;
11283;SDS011;5698;47.332;11.180;2024-03-23T01:00:16;1.10;;;1.00;;
11283;SDS011;5698;47.332;11.180;2024-03-23T01:02:42;2.00;;;1.07;;
11283;SDS011;5698;47.332;11.180;2024-03-23T01:05:09;1.23;;;0.80;;
11283;SDS011;5698;47.332;11.180;2024-03-23T01:07:35;1.17;;;0.83;;
11283;SDS011;5698;47.332;11.180;2024-03-23T01:10:04;1.90;;;0.90;;
11283;SDS011;5698;47.332;11.180;2024-03-23T01:12:31;2.00;;;1.17;;
11283;SDS011;5698;47.332;11.180;2024-03-23T01:14:58;1.57;;;1.00;;
11283;SDS011;5698;47.332;11.180;2024-03-23T01:17:24;1.50;;;1.20;;
11283;SDS011;5698;47.332;11.180;2024-03-23T01:19:51;1.20;;;0.90;;
11283;SDS011;5698;47.332;11.180;2024-03-23T01:22:17;1.03;;;0.93;;
11283;SDS011;5698;47.332;11.180;2024-03-23T01:24:44;1.10;;;1.00;;
11283;SDS011;5698;47.332;11.180;2024-03-23T01:27:12;1.20;;;1.10;;
11283;SDS011;5698;47.332;11.180;2024-03-23T01:29:39;1.73;;;1.00;;
11283;SDS011;5698;47.332;11.180;2024-03-23T01:32:05;0.90;;;0.80;;
11283;SDS011;5698;47.332;11.180;2024-03-23T01:34:33;1.33;;;1.00;;
11283;SDS011;5698;47.332;11.180;2024-03-23T01:37:01;1.43;;;1.00;;
11283;SDS011;5698;47.332;11.180;2024-03-23T01:39:28;1.80;;;1.10;;
11283;SDS011;5698;47.332;11.180;2024-03-23T01:41:54;5.07;;;1.00;;
11283;SDS011;5698;47.332;11.180;2024-03-23T01:44:22;0.93;;;0.90;;
11283;SDS011;5698;47.332;11.180;2024-03-23T01:46:48;0.90;;;0.90;;
11283;SDS011;5698;47.332;11.180;2024-03-23T01:49:16;2.07;;;0.97;;
11283;SDS011;5698;47.332;11.180;2024-03-23T01:51:43;0.90;;;0.90;;
11283;SDS011;5698;47.332;11.180;2024-03-23T01:54:11;0.90;;;0.80;;
11283;SDS011;5698;47.332;11.180;2024-03-23T01:56:37;1.10;;;1.00;;
11283;SDS011;5698;47.332;11.180;2024-03-23T01:59:04;1.33;;;1.00;;
11283;SDS011;5698;47.332;11.180;2024-03-23T02:01:32;3.03;;;0.90;;
11283;SDS011;5698;47.332;11.180;2024-03-23T02:04:02;1.43;;;1.07;;
11283;SDS011;5698;47.332;11.180;2024-03-23T02:06:28;2.30;;;0.90;;
11283;SDS011;5698;47.332;11.180;2024-03-23T02:08:55;2.50;;;1.03;;
11283;SDS011;5698;47.332;11.180;2024-03-23T02:11:21;3.70;;;1.00;;
11283;SDS011;5698;47.332;11.180;2024-03-23T02:13:48;1.03;;;1.00;;
11283;SDS011;5698;47.332;11.180;2024-03-23T02:16:14;1.00;;;0.90;;
11283;SDS011;5698;47.332;11.180;2024-03-23T02:18:43;1.23;;;1.07;;
11283;SDS011;5698;47.332;11.180;2024-03-23T02:21:09;1.43;;;1.00;;
11283;SDS011;5698;47.332;11.180;2024-03-23T02:23:37;1.03;;;0.93;;
11283;SDS011;5698;47.332;11.180;2024-03-23T02:26:03;1.30;;;0.80;;
11283;SDS011;5698;47.332;11.180;2024-03-23T02:28:30;0.93;;;0.90;;
11283;SDS011;5698;47.332;11.180;2024-03-23T02:30:56;1.00;;;0.90;;
11283;SDS011;5698;47.332;11.180;2024-03-23T02:33:25;1.37;;;1.10;;
11283;SDS011;5698;47.332;11.180;2024-03-23T02:35:55;1.13;;;0.93;;
11283;SDS011;5698;47.332;11.180;2024-03-23T02:38:22;1.33;;;0.90;;
11283;SDS011;5698;47.332;11.180;2024-03-23T02:40:50;1.10;;;1.00;;
11283;SDS011;5698;47.332;11.180;2024-03-23T02:43:17;1.30;;;1.10;;
11283;SDS011;5698;47.332;11.180;2024-03-23T02:45:43;2.87;;;1.53;;
11283;SDS011;5698;47.332;11.180;2024-03-23T02:48:10;1.10;;;1.00;;
11283;SDS011;5698;47.332;11.180;2024-03-23T02:50:36;1.00;;;0.90;;
11283;SDS011;5698;47.332;11.180;2024-03-23T02:53:03;1.27;;;1.00;;
11283;SDS011;5698;47.332;11.180;2024-03-23T02:55:29;1.00;;;0.90;;
11283;SDS011;5698;47.332;11.180;2024-03-23T02:57:58;0.90;;;0.70;;
11283;SDS011;5698;47.332;11.180;2024-03-23T03:00:26;1.20;;;1.10;;
11283;SDS011;5698;47.332;11.180;2024-03-23T03:02:54;0.73;;;0.60;;
11283;SDS011;5698;47.332;11.180;2024-03-23T03:05:20;1.20;;;0.80;;
11283;SDS011;5698;47.332;11.180;2024-03-23T03:07:48;1.17;;;0.90;;
11283;SDS011;5698;47.332;11.180;2024-03-23T03:10:14;1.90;;;1.10;;
11283;SDS011;5698;47.332;11.180;2024-03-23T03:12:41;0.80;;;0.80;;
11283;SDS011;5698;47.332;11.180;2024-03-23T03:15:08;1.90;;;0.90;;
11283;SDS011;5698;47.332;11.180;2024-03-23T03:17:36;0.80;;;0.80;;
11283;SDS011;5698;47.332;11.180;2024-03-23T03:20:02;0.80;;;0.80;;
11283;SDS011;5698;47.332;11.180;2024-03-23T03:22:30;0.80;;;0.80;;
11283;SDS011;5698;47.332;11.180;2024-03-23T03:24:56;0.70;;;0.70;;
11283;SDS011;5698;47.332;11.180;2024-03-23T03:27:23;1.20;;;1.10;;
11283;SDS011;5698;47.332;11.180;2024-03-23T03:29:49;0.80;;;0.80;;
11283;SDS011;5698;47.332;11.180;2024-03-23T03:32:17;0.97;;;0.90;;
11283;SDS011;5698;47.332;11.180;2024-03-23T03:34:43;0.80;;;0.80;;
11283;SDS011;5698;47.332;11.180;2024-03-23T03:37:10;0.93;;;0.80;;
11283;SDS011;5698;47.332;11.180;2024-03-23T03:39:36;1.33;;;0.80;;
11283;SDS011;5698;47.332;11.180;2024-03-23T03:42:04;1.47;;;1.03;;
11283;SDS011;5698;47.332;11.180;2024-03-23T03:44:32;1.33;;;0.90;;
11283;SDS011;5698;47.332;11.180;2024-03-23T03:46:59;1.17;;;0.93;;
11283;SDS011;5698;47.332;11.180;2024-03-23T03:49:26;3.40;;;0.80;;
11283;SDS011;5698;47.332;11.180;2024-03-23T03:51:53;2.20;;;0.87;;
11283;SDS011;5698;47.332;11.180;2024-03-23T03:54:19;0.90;;;0.70;;
11283;SDS011;5698;47.332;11.180;2024-03-23T03:56:47;1.70;;;0.70;;
11283;SDS011;5698;47.332;11.180;2024-03-23T03:59:13;0.80;;;0.80;;
11283;SDS011;5698;47.332;11.180;2024-03-23T04:01:40;0.80;;;0.80;;
11283;SDS011;5698;47.332;11.180;2024-03-23T04:04:06;1.73;;;0.93;;
11283;SDS011;5698;47.332;11.180;2024-03-23T04:06:37;0.77;;;0.77;;
11283;SDS011;5698;47.332;11.180;2024-03-23T04:09:03;0.70;;;0.70;;
11283;SDS011;5698;47.332;11.180;2024-03-23T04:11:31;0.70;;;0.70;;
11283;SDS011;5698;47.332;11.180;2024-03-23T04:13:57;1.33;;;0.73;;
11283;SDS011;5698;47.332;11.180;2024-03-23T04:16:25;0.80;;;0.70;;
11283;SDS011;5698;47.332;11.180;2024-03-23T04:18:52;2.77;;;0.97;;
11283;SDS011;5698;47.332;11.180;2024-03-23T04:21:19;0.60;;;0.60;;
11283;SDS011;5698;47.332;11.180;2024-03-23T04:23:47;1.07;;;0.90;;
11283;SDS011;5698;47.332;11.180;2024-03-23T04:26:14;0.70;;;0.70;;
11283;SDS011;5698;47.332;11.180;2024-03-23T04:28:40;0.80;;;0.80;;
11283;SDS011;5698;47.332;11.180;2024-03-23T04:31:08;0.70;;;0.70;;
11283;SDS011;5698;47.332;11.180;2024-03-23T04:33:34;1.93;;;0.70;;
11283;SDS011;5698;47.332;11.180;2024-03-23T04:36:01;0.70;;;0.70;;
11283;SDS011;5698;47.332;11.180;2024-03-23T04:38:27;0.70;;;0.70;;
11283;SDS011;5698;47.332;11.180;2024-03-23T04:40:56;1.03;;;0.57;;
11283;SDS011;5698;47.332;11.180;2024-03-23T04:43:24;0.87;;;0.70;;
11283;SDS011;5698;47.332;11.180;2024-03-23T04:45:51;0.70;;;0.70;;
11283;SDS011;5698;47.332;11.180;2024-03-23T04:48:19;0.60;;;0.60;;
11283;SDS011;5698;47.332;11.180;2024-03-23T04:50:47;0.70;;;0.70;;
11283;SDS011;5698;47.332;11.180;2024-03-23T04:53:15;0.93;;;0.70;;
11283;SDS011;5698;47.332;11.180;2024-03-23T04:55:42;1.20;;;0.63;;
11283;SDS011;5698;47.332;11.180;2024-03-23T04:58:12;0.90;;;0.70;;
11283;SDS011;5698;47.332;11.180;2024-03-23T05:00:38;0.70;;;0.70;;
11283;SDS011;5698;47.332;11.180;2024-03-23T05:03:05;1.70;;;0.60;;
11283;SDS011;5698;47.332;11.180;2024-03-23T05:05:31;0.63;;;0.63;;
11283;SDS011;5698;47.332;11.180;2024-03-23T05:07:58;1.40;;;0.87;;
11283;SDS011;5698;47.332;11.180;2024-03-23T05:10:25;0.97;;;0.70;;
11283;SDS011;5698;47.332;11.180;2024-03-23T05:12:51;0.63;;;0.63;;
11283;SDS011;5698;47.332;11.180;2024-03-23T05:15:20;1.70;;;0.80;;
11283;SDS011;5698;47.332;11.180;2024-03-23T05:17:46;1.07;;;0.60;;
11283;SDS011;5698;47.332;11.180;2024-03-23T05:20:13;1.43;;;0.70;;
11283;SDS011;5698;47.332;11.180;2024-03-23T05:22:39;0.80;;;0.80;;
11283;SDS011;5698;47.332;11.180;2024-03-23T05:25:06;3.67;;;0.90;;
11283;SDS011;5698;47.332;11.180;2024-03-23T05:27:34;1.13;;;0.83;;
11283;SDS011;5698;47.332;11.180;2024-03-23T05:30:01;1.23;;;0.80;;
11283;SDS011;5698;47.332;11.180;2024-03-23T05:32:30;0.90;;;0.90;;
11283;SDS011;5698;47.332;11.180;2024-03-23T05:34:57;0.70;;;0.70;;
11283;SDS011;5698;47.332;11.180;2024-03-23T05:37:23;1.17;;;0.87;;
11283;SDS011;5698;47.332;11.180;2024-03-23T05:39:51;0.80;;;0.80;;
11283;SDS011;5698;47.332;11.180;2024-03-23T05:42:17;1.43;;;1.00;;
11283;SDS011;5698;47.332;11.180;2024-03-23T05:44:44;1.17;;;0.80;;
11283;SDS011;5698;47.332;11.180;2024-03-23T05:47:10;0.80;;;0.73;;
11283;SDS011;5698;47.332;11.180;2024-03-23T05:49:41;1.47;;;0.70;;
11283;SDS011;5698;47.332;11.180;2024-03-23T05:52:07;0.80;;;0.80;;
11283;SDS011;5698;47.332;11.180;2024-03-23T05:54:34;1.60;;;0.90;;
11283;SDS011;5698;47.332;11.180;2024-03-23T05:57:00;0.73;;;0.70;;
11283;SDS011;5698;47.332;11.180;2024-03-23T05:59:28;1.27;;;0.80;;
11283;SDS011;5698;47.332;11.180;2024-03-23T06:01:54;0.80;;;0.80;;
11283;SDS011;5698;47.332;11.180;2024-03-23T06:04:21;1.30;;;0.80;;
11283;SDS011;5698;47.332;11.180;2024-03-23T06:06:49;0.60;;;0.60;;
11283;SDS011;5698;47.332;11.180;2024-03-23T06:09:17;0.93;;;0.80;;
11283;SDS011;5698;47.332;11.180;2024-03-23T06:11:44;0.70;;;0.70;;
11283;SDS011;5698;47.332;11.180;2024-03-23T06:14:11;0.60;;;0.60;;
11283;SDS011;5698;47.332;11.180;2024-03-23T06:16:37;1.10;;;1.00;;
11283;SDS011;5698;47.332;11.180;2024-03-23T06:19:04;1.00;;;0.80;;
11283;SDS011;5698;47.332;11.180;2024-03-23T06:21:32;1.17;;;0.80;;
11283;SDS011;5698;47.332;11.180;2024-03-23T06:24:00;1.13;;;0.83;;
11283;SDS011;5698;47.332;11.180;2024-03-23T06:26:26;0.70;;;0.70;;
11283;SDS011;5698;47.332;11.180;2024-03-23T06:28:53;1.13;;;0.67;;
11283;SDS011;5698;47.332;11.180;2024-03-23T06:31:21;1.03;;;0.90;;
11283;SDS011;5698;47.332;11.180;2024-03-23T06:33:47;1.23;;;0.80;;
11283;SDS011;5698;47.332;11.180;2024-03-23T06:36:13;0.80;;;0.80;;
11283;SDS011;5698;47.332;11.180;2024-03-23T06:38:40;0.80;;;0.80;;
11283;SDS011;5698;47.332;11.180;2024-03-23T06:41:08;1.37;;;0.90;;
11283;SDS011;5698;47.332;11.180;2024-03-23T06:43:36;0.70;;;0.70;;
11283;SDS011;5698;47.332;11.180;2024-03-23T06:46:03;1.57;;;0.80;;
11283;SDS011;5698;47.332;11.180;2024-03-23T06:48:30;1.23;;;1.10;;
11283;SDS011;5698;47.332;11.180;2024-03-23T06:50:57;1.23;;;1.13;;
11283;SDS011;5698;47.332;11.180;2024-03-23T06:53:24;1.60;;;1.10;;
11283;SDS011;5698;47.332;11.180;2024-03-23T06:55:50;4.23;;;2.37;;
11283;SDS011;5698;47.332;11.180;2024-03-23T06:58:20;2.63;;;2.13;;
11283;SDS011;5698;47.332;11.180;2024-03-23T07:00:46;2.50;;;2.10;;
11283;SDS011;5698;47.332;11.180;2024-03-23T07:03:14;1.83;;;1.70;;
11283;SDS011;5698;47.332;11.180;2024-03-23T07:05:40;2.13;;;1.93;;
11283;SDS011;5698;47.332;11.180;2024-03-23T07:08:07;1.60;;;1.50;;
11283;SDS011;5698;47.332;11.180;2024-03-23T07:11:01;3.17;;;1.90;;
11283;SDS011;5698;47.332;11.180;2024-03-23T07:13:28;2.90;;;1.07;;
11283;SDS011;5698;47.332;11.180;2024-03-23T07:15:54;1.87;;;1.10;;
11283;SDS011;5698;47.332;11.180;2024-03-23T07:18:22;3.13;;;1.00;;
11283;SDS011;5698;47.332;11.180;2024-03-23T07:20:54;1.07;;;0.90;;
11283;SDS011;5698;47.332;11.180;2024-03-23T07:23:23;1.00;;;0.90;;
11283;SDS011;5698;47.332;11.180;2024-03-23T07:25:56;1.70;;;0.90;;
11283;SDS011;5698;47.332;11.180;2024-03-23T07:28:24;0.90;;;0.70;;
11283;SDS011;5698;47.332;11.180;2024-03-23T07:31:01;1.83;;;0.90;;
11283;SDS011;5698;47.332;11.180;2024-03-23T07:33:29;1.40;;;0.93;;
11283;SDS011;5698;47.332;11.180;2024-03-23T07:35:55;1.47;;;1.07;;
11283;SDS011;5698;47.332;11.180;2024-03-23T07:38:22;1.00;;;0.80;;
11283;SDS011;5698;47.332;11.180;2024-03-23T07:40:49;1.90;;;0.77;;
11283;SDS011;5698;47.332;11.180;2024-03-23T07:43:20;1.53;;;0.70;;
11283;SDS011;5698;47.332;11.180;2024-03-23T07:45:52;0.77;;;0.70;;
11283;SDS011;5698;47.332;11.180;2024-03-23T07:48:20;1.43;;;0.73;;
11283;SDS011;5698;47.332;11.180;2024-03-23T07:50:55;0.90;;;0.80;;
11283;SDS011;5698;47.332;11.180;2024-03-23T07:53:23;0.90;;;0.70;;
11283;SDS011;5698;47.332;11.180;2024-03-23T07:55:52;1.93;;;0.70;;
11283;SDS011;5698;47.332;11.180;2024-03-23T07:58:20;0.70;;;0.70;;
11283;SDS011;5698;47.332;11.180;2024-03-23T08:00:46;1.13;;;0.90;;
11283;SDS011;5698;47.332;11.180;2024-03-23T08:03:15;2.20;;;0.90;;
11283;SDS011;5698;47.332;11.180;2024-03-23T08:05:41;0.80;;;0.80;;
11283;SDS011;5698;47.332;11.180;2024-03-23T08:08:08;0.83;;;0.70;;
11283;SDS011;5698;47.332;11.180;2024-03-23T08:10:34;1.13;;;1.03;;
11283;SDS011;5698;47.332;11.180;2024-03-23T08:13:01;1.20;;;0.90;;
11283;SDS011;5698;47.332;11.180;2024-03-23T08:15:29;1.23;;;1.13;;
11283;SDS011;5698;47.332;11.180;2024-03-23T08:17:58;1.97;;;1.30;;
11283;SDS011;5698;47.332;11.180;2024-03-23T08:20:26;2.70;;;1.63;;
11283;SDS011;5698;47.332;11.180;2024-03-23T08:22:53;4.50;;;2.90;;
11283;SDS011;5698;47.332;11.180;2024-03-23T08:25:19;4.60;;;4.20;;
11283;SDS011;5698;47.332;11.180;2024-03-23T08:27:46;4.23;;;3.83;;
11283;SDS011;5698;47.332;11.180;2024-03-23T08:30:12;3.23;;;2.93;;
11283;SDS011;5698;47.332;11.180;2024-03-23T08:32:39;3.30;;;3.00;;
11283;SDS011;5698;47.332;11.180;2024-03-23T08:35:06;1.47;;;1.30;;
11283;SDS011;5698;47.332;11.180;2024-03-23T08:37:36;2.53;;;1.50;;
11283;SDS011;5698;47.332;11.180;2024-03-23T08:40:02;2.70;;;1.37;;
11283;SDS011;5698;47.332;11.180;2024-03-23T08:42:29;3.03;;;1.80;;
11283;SDS011;5698;47.332;11.180;2024-03-23T08:44:55;3.53;;;2.40;;
11283;SDS011;5698;47.332;11.180;2024-03-23T08:47:22;2.90;;;2.00;;
11283;SDS011;5698;47.332;11.180;2024-03-23T08:49:48;3.23;;;1.63;;
11283;SDS011;5698;47.332;11.180;2024-03-23T08:52:15;5.73;;;2.80;;
11283;SDS011;5698;47.332;11.180;2024-03-23T08:54:43;2.60;;;2.30;;
11283;SDS011;5698;47.332;11.180;2024-03-23T08:57:11;2.30;;;2.10;;
11283;SDS011;5698;47.332;11.180;2024-03-23T08:59:37;4.03;;;2.73;;
11283;SDS011;5698;47.332;11.180;2024-03-23T09:02:04;2.20;;;2.00;;
11283;SDS011;5698;47.332;11.180;2024-03-23T09:04:30;2.17;;;1.87;;
11283;SDS011;5698;47.332;11.180;2024-03-23T09:06:57;2.70;;;2.40;;
11283;SDS011;5698;47.332;11.180;2024-03-23T09:09:25;3.90;;;2.50;;
11283;SDS011;5698;47.332;11.180;2024-03-23T09:11:53;3.20;;;2.23;;
11283;SDS011;5698;47.332;11.180;2024-03-23T09:14:19;4.70;;;3.57;;
11283;SDS011;5698;47.332;11.180;2024-03-23T09:16:46;3.23;;;2.17;;
11283;SDS011;5698;47.332;11.180;2024-03-23T09:19:16;1.77;;;1.67;;
11283;SDS011;5698;47.332;11.180;2024-03-23T09:21:43;1.60;;;1.30;;
11283;SDS011;5698;47.332;11.180;2024-03-23T09:24:09;2.33;;;1.30;;
11283;SDS011;5698;47.332;11.180;2024-03-23T09:26:36;2.03;;;1.30;;
11283;SDS011;5698;47.332;11.180;2024-03-23T09:29:04;1.10;;;1.00;;
11283;SDS011;5698;47.332;11.180;2024-03-23T09:31:31;1.20;;;1.00;;
11283;SDS011;5698;47.332;11.180;2024-03-23T09:33:58;1.17;;;0.90;;
11283;SDS011;5698;47.332;11.180;2024-03-23T09:36:25;1.23;;;0.80;;
11283;SDS011;5698;47.332;11.180;2024-03-23T09:38:52;0.87;;;0.73;;
11283;SDS011;5698;47.332;11.180;2024-03-23T09:41:18;0.80;;;0.77;;
11283;SDS011;5698;47.332;11.180;2024-03-23T09:43:45;1.27;;;0.80;;
11283;SDS011;5698;47.332;11.180;2024-03-23T09:46:15;1.27;;;0.90;;
11283;SDS011;5698;47.332;11.180;2024-03-23T09:48:41;2.00;;;1.17;;
11283;SDS011;5698;47.332;11.180;2024-03-23T09:51:11;2.53;;;1.00;;
11283;SDS011;5698;47.332;11.180;2024-03-23T09:53:37;1.47;;;0.83;;
11283;SDS011;5698;47.332;11.180;2024-03-23T09:56:05;1.50;;;1.00;;
11283;SDS011;5698;47.332;11.180;2024-03-23T09:58:32;2.43;;;1.20;;
11283;SDS011;5698;47.332;11.180;2024-03-23T10:00:59;1.17;;;1.07;;
11283;SDS011;5698;47.332;11.180;2024-03-23T10:03:26;1.47;;;0.80;;
11283;SDS011;5698;47.332;11.180;2024-03-23T10:06:00;1.47;;;0.90;;
11283;SDS011;5698;47.332;11.180;2024-03-23T10:08:27;1.83;;;1.10;;
11283;SDS011;5698;47.332;11.180;2024-03-23T10:10:55;1.00;;;0.90;;
11283;SDS011;5698;47.332;11.180;2024-03-23T10:13:24;1.50;;;1.00;;
11283;SDS011;5698;47.332;11.180;2024-03-23T10:15:56;2.13;;;0.90;;
11283;SDS011;5698;47.332;11.180;2024-03-23T10:18:23;1.50;;;0.90;;
11283;SDS011;5698;47.332;11.180;2024-03-23T10:21:05;1.83;;;0.90;;
11283;SDS011;5698;47.332;11.180;2024-03-23T10:23:33;1.27;;;0.80;;
11283;SDS011;5698;47.332;11.180;2024-03-23T10:26:11;0.97;;;0.53;;
11283;SDS011;5698;47.332;11.180;2024-03-23T10:28:54;0.80;;;0.63;;
11283;SDS011;5698;47.332;11.180;2024-03-23T10:31:25;0.50;;;0.50;;
11283;SDS011;5698;47.332;11.180;2024-03-23T10:33:51;0.40;;;0.40;;
11283;SDS011;5698;47.332;11.180;2024-03-23T10:36:21;0.83;;;0.40;;
11283;SDS011;5698;47.332;11.180;2024-03-23T10:38:47;0.60;;;0.60;;
11283;SDS011;5698;47.332;11.180;2024-03-23T10:41:17;3.90;;;0.50;;
11283;SDS011;5698;47.332;11.180;2024-03-23T10:43:44;0.80;;;0.33;;
11283;SDS011;5698;47.332;11.180;2024-03-23T10:46:12;0.50;;;0.40;;
11283;SDS011;5698;47.332;11.180;2024-03-23T10:48:38;2.13;;;0.30;;
11283;SDS011;5698;47.332;11.180;2024-03-23T10:51:06;1.10;;;0.30;;
11283;SDS011;5698;47.332;11.180;2024-03-23T10:53:34;0.20;;;0.20;;
11283;SDS011;5698;47.332;11.180;2024-03-23T10:56:02;1.23;;;0.50;;
11283;SDS011;5698;47.332;11.180;2024-03-23T10:58:30;0.33;;;0.33;;
11283;SDS011;5698;47.332;11.180;2024-03-23T11:00:59;0.37;;;0.37;;
11283;SDS011;5698;47.332;11.180;2024-03-23T11:03:31;0.30;;;0.30;;
11283;SDS011;5698;47.332;11.180;2024-03-23T11:05:59;1.27;;;0.40;;
11283;SDS011;5698;47.332;11.180;2024-03-23T11:08:34;0.50;;;0.50;;
11283;SDS011;5698;47.332;11.180;2024-03-23T11:11:14;0.27;;;0.27;;
11283;SDS011;5698;47.332;11.180;2024-03-23T11:13:43;0.20;;;0.20;;
11283;SDS011;5698;47.332;11.180;2024-03-23T11:16:13;0.60;;;0.60;;
11283;SDS011;5698;47.332;11.180;2024-03-23T11:18:39;1.50;;;1.30;;
11283;SDS011;5698;47.332;11.180;2024-03-23T11:21:07;0.37;;;0.37;;
11283;SDS011;5698;47.332;11.180;2024-03-23T11:23:34;0.77;;;0.30;;
11283;SDS011;5698;47.332;11.180;2024-03-23T11:26:01;0.63;;;0.30;;
11283;SDS011;5698;47.332;11.180;2024-03-23T11:28:28;0.50;;;0.50;;
11283;SDS011;5698;47.332;11.180;2024-03-23T11:30:54;0.47;;;0.47;;
11283;SDS011;5698;47.332;11.180;2024-03-23T11:33:20;1.17;;;0.33;;
11283;SDS011;5698;47.332;11.180;2024-03-23T11:35:47;0.23;;;0.23;;
11283;SDS011;5698;47.332;11.180;2024-03-23T11:38:14;1.17;;;0.40;;
11283;SDS011;5698;47.332;11.180;2024-03-23T11:40:44;0.30;;;0.30;;
11283;SDS011;5698;47.332;11.180;2024-03-23T11:43:12;0.30;;;0.30;;
11283;SDS011;5698;47.332;11.180;2024-03-23T11:45:42;0.30;;;0.30;;
11283;SDS011;5698;47.332;11.180;2024-03-23T11:48:08;0.30;;;0.30;;
11283;SDS011;5698;47.332;11.180;2024-03-23T11:50:37;0.40;;;0.40;;
11283;SDS011;5698;47.332;11.180;2024-03-23T11:53:12;0.40;;;0.40;;
11283;SDS011;5698;47.332;11.180;2024-03-23T11:55:47;1.27;;;1.17;;
11283;SDS011;5698;47.332;11.180;2024-03-23T11:58:14;0.50;;;0.50;;
11283;SDS011;5698;47.332;11.180;2024-03-23T12:00:42;0.50;;;0.50;;
11283;SDS011;5698;47.332;11.180;2024-03-23T12:03:15;0.40;;;0.40;;
11283;SDS011;5698;47.332;11.180;2024-03-23T12:05:46;0.43;;;0.43;;
11283;SDS011;5698;47.332;11.180;2024-03-23T12:08:20;0.50;;;0.50;;
11283;SDS011;5698;47.332;11.180;2024-03-23T12:10:51;0.40;;;0.40;;
11283;SDS011;5698;47.332;11.180;2024-03-23T12:13:18;1.23;;;0.30;;
11283;SDS011;5698;47.332;11.180;2024-03-23T12:15:46;0.43;;;0.43;;
11283;SDS011;5698;47.332;11.180;2024-03-23T12:18:13;0.40;;;0.40;;
11283;SDS011;5698;47.332;11.180;2024-03-23T12:20:40;0.30;;;0.30;;
11283;SDS011;5698;47.332;11.180;2024-03-23T12:23:09;0.83;;;0.40;;
11283;SDS011;5698;47.332;11.180;2024-03-23T12:25:38;1.80;;;0.30;;
11283;SDS011;5698;47.332;11.180;2024-03-23T12:28:06;0.30;;;0.30;;
11283;SDS011;5698;47.332;11.180;2024-03-23T12:30:34;0.43;;;0.40;;
11283;SDS011;5698;47.332;11.180;2024-03-23T12:33:01;1.30;;;1.20;;
11283;SDS011;5698;47.332;11.180;2024-03-23T12:35:29;0.53;;;0.50;;
11283;SDS011;5698;47.332;11.180;2024-03-23T12:37:55;0.60;;;0.60;;
11283;SDS011;5698;47.332;11.180;2024-03-23T12:40:22;0.83;;;0.50;;
11283;SDS011;5698;47.332;11.180;2024-03-23T12:42:48;0.50;;;0.50;;
11283;SDS011;5698;47.332;11.180;2024-03-23T12:45:17;0.87;;;0.60;;
11283;SDS011;5698;47.332;11.180;2024-03-23T12:47:43;0.60;;;0.60;;
11283;SDS011;5698;47.332;11.180;2024-03-23T12:50:10;0.50;;;0.50;;
11283;SDS011;5698;47.332;11.180;2024-03-23T12:52:36;0.97;;;0.60;;
11283;SDS011;5698;47.332;11.180;2024-03-23T12:55:03;0.70;;;0.70;;
11283;SDS011;5698;47.332;11.180;2024-03-23T12:57:31;1.10;;;0.63;;
11283;SDS011;5698;47.332;11.180;2024-03-23T12:59:58;0.50;;;0.50;;
11283;SDS011;5698;47.332;11.180;2024-03-23T13:02:26;1.13;;;0.60;;
11283;SDS011;5698;47.332;11.180;2024-03-23T13:04:53;0.60;;;0.60;;
11283;SDS011;5698;47.332;11.180;2024-03-23T13:07:20;0.70;;;0.70;;
11283;SDS011;5698;47.332;11.180;2024-03-23T13:09:49;0.77;;;0.70;;
11283;SDS011;5698;47.332;11.180;2024-03-23T13:12:16;0.77;;;0.70;;
11283;SDS011;5698;47.332;11.180;2024-03-23T13:14:43;1.17;;;0.60;;
11283;SDS011;5698;47.332;11.180;2024-03-23T13:17:09;1.17;;;1.00;;
11283;SDS011;5698;47.332;11.180;2024-03-23T13:19:37;2.10;;;1.00;;
11283;SDS011;5698;47.332;11.180;2024-03-23T13:22:04;1.07;;;0.90;;
11283;SDS011;5698;47.332;11.180;2024-03-23T13:24:31;0.67;;;0.67;;
11283;SDS011;5698;47.332;11.180;2024-03-23T13:26:57;0.80;;;0.80;;
11283;SDS011;5698;47.332;11.180;2024-03-23T13:29:24;1.50;;;0.80;;
11283;SDS011;5698;47.332;11.180;2024-03-23T13:31:51;1.50;;;1.30;;
11283;SDS011;5698;47.332;11.180;2024-03-23T13:34:18;1.70;;;0.90;;
11283;SDS011;5698;47.332;11.180;2024-03-23T13:36:46;1.00;;;0.90;;
11283;SDS011;5698;47.332;11.180;2024-03-23T13:39:14;1.50;;;1.40;;
11283;SDS011;5698;47.332;11.180;2024-03-23T13:41:41;0.77;;;0.77;;
11283;SDS011;5698;47.332;11.180;2024-03-23T13:44:09;1.70;;;0.90;;
11283;SDS011;5698;47.332;11.180;2024-03-23T13:46:36;1.23;;;0.93;;
11283;SDS011;5698;47.332;11.180;2024-03-23T13:49:03;1.93;;;0.83;;
11283;SDS011;5698;47.332;11.180;2024-03-23T13:51:29;2.13;;;1.50;;
11283;SDS011;5698;47.332;11.180;2024-03-23T13:53:57;1.50;;;1.00;;
11283;SDS011;5698;47.332;11.180;2024-03-23T13:56:26;0.90;;;0.90;;
11283;SDS011;5698;47.332;11.180;2024-03-23T13:58:54;0.77;;;0.70;;
11283;SDS011;5698;47.332;11.180;2024-03-23T14:01:21;0.83;;;0.80;;
11283;SDS011;5698;47.332;11.180;2024-03-23T14:03:49;2.77;;;2.57;;
11283;SDS011;5698;47.332;11.180;2024-03-23T14:06:15;14.70;;;9.67;;
11283;SDS011;5698;47.332;11.180;2024-03-23T14:08:42;19.97;;;10.60;;
11283;SDS011;5698;47.332;11.180;2024-03-23T14:11:09;2.33;;;2.07;;
11283;SDS011;5698;47.332;11.180;2024-03-23T14:13:36;1.83;;;1.50;;
11283;SDS011;5698;47.332;11.180;2024-03-23T14:16:03;2.63;;;1.03;;
11283;SDS011;5698;47.332;11.180;2024-03-23T14:18:30;4.20;;;0.90;;
11283;SDS011;5698;47.332;11.180;2024-03-23T14:20:57;1.03;;;0.93;;
11283;SDS011;5698;47.332;11.180;2024-03-23T14:23:25;1.60;;;1.20;;
11283;SDS011;5698;47.332;11.180;2024-03-23T14:25:55;1.17;;;1.00;;
11283;SDS011;5698;47.332;11.180;2024-03-23T14:28:24;1.27;;;0.80;;
11283;SDS011;5698;47.332;11.180;2024-03-23T14:30:50;0.87;;;0.70;;
11283;SDS011;5698;47.332;11.180;2024-03-23T14:33:18;1.90;;;0.90;;
11283;SDS011;5698;47.332;11.180;2024-03-23T14:35:51;0.90;;;0.73;;
11283;SDS011;5698;47.332;11.180;2024-03-23T14:38:18;1.83;;;0.83;;
11283;SDS011;5698;47.332;11.180;2024-03-23T14:40:44;1.20;;;0.80;;
11283;SDS011;5698;47.332;11.180;2024-03-23T14:43:12;1.03;;;0.90;;
11283;SDS011;5698;47.332;11.180;2024-03-23T14:45:45;1.73;;;0.60;;
11283;SDS011;5698;47.332;11.180;2024-03-23T14:48:30;1.50;;;0.80;;
11283;SDS011;5698;47.332;11.180;2024-03-23T14:50:57;1.03;;;0.90;;
11283;SDS011;5698;47.332;11.180;2024-03-23T14:53:24;1.20;;;0.93;;
11283;SDS011;5698;47.332;11.180;2024-03-23T14:55:50;1.53;;;1.03;;
11283;SDS011;5698;47.332;11.180;2024-03-23T14:58:17;1.10;;;0.90;;
11283;SDS011;5698;47.332;11.180;2024-03-23T15:00:44;1.07;;;0.73;;
11283;SDS011;5698;47.332;11.180;2024-03-23T15:03:11;0.83;;;0.73;;
11283;SDS011;5698;47.332;11.180;2024-03-23T15:05:37;1.07;;;0.70;;
11283;SDS011;5698;47.332;11.180;2024-03-23T15:08:05;1.60;;;1.00;;
11283;SDS011;5698;47.332;11.180;2024-03-23T15:10:32;3.70;;;1.10;;
11283;SDS011;5698;47.332;11.180;2024-03-23T15:12:59;1.63;;;0.90;;
11283;SDS011;5698;47.332;11.180;2024-03-23T15:15:25;1.03;;;0.83;;
11283;SDS011;5698;47.332;11.180;2024-03-23T15:17:54;1.80;;;1.00;;
11283;SDS011;5698;47.332;11.180;2024-03-23T15:20:20;2.13;;;0.80;;
11283;SDS011;5698;47.332;11.180;2024-03-23T15:22:47;1.43;;;0.80;;
11283;SDS011;5698;47.332;11.180;2024-03-23T15:25:13;1.57;;;0.90;;
11283;SDS011;5698;47.332;11.180;2024-03-23T15:27:40;2.67;;;0.90;;
11283;SDS011;5698;47.332;11.180;2024-03-23T15:30:06;1.53;;;1.00;;
11283;SDS011;5698;47.332;11.180;2024-03-23T15:32:34;1.50;;;1.10;;
11283;SDS011;5698;47.332;11.180;2024-03-23T15:35:02;1.13;;;0.70;;
11283;SDS011;5698;47.332;11.180;2024-03-23T15:37:32;1.23;;;0.73;;
11283;SDS011;5698;47.332;11.180;2024-03-23T15:39:59;0.93;;;0.87;;
11283;SDS011;5698;47.332;11.180;2024-03-23T15:42:26;0.80;;;0.80;;